Terminal Aerodrome Forecast
Issued by NWS

Home | Current Version | Previous Version | Text Only | Print | Product List | Glossary On
Versions: 1 2 3 4 5 6 7 8 9 10 11 12 13 14 15 16 17
000
FTUS44 KLZK 231700
TAFHRO
TAF
KHRO 231720Z 2318/2418 16010G18KT P6SM SCT250
     FM240500 15008KT P6SM SCT040 BKN250
     FM241200 17012G20KT P6SM VCSH SCT025 BKN050=

USA.gov is the U.S. government's official web portal to all federal, state and local government web resources and services.